sensor_id;sensor_type;location;lat;lon;timestamp;temperature;humidity
10245;DHT22;5167;52.164;10.530;2022-08-21T00:01:43;20.70;29.90
10245;DHT22;5167;52.164;10.530;2022-08-21T00:04:09;20.80;30.80
10245;DHT22;5167;52.164;10.530;2022-08-21T00:06:36;20.70;30.60
10245;DHT22;5167;52.164;10.530;2022-08-21T00:09:05;20.70;31.60
10245;DHT22;5167;52.164;10.530;2022-08-21T00:11:30;20.70;31.20
10245;DHT22;5167;52.164;10.530;2022-08-21T00:13:56;20.70;31.80
10245;DHT22;5167;52.164;10.530;2022-08-21T00:16:22;20.60;31.70
10245;DHT22;5167;52.164;10.530;2022-08-21T00:18:48;20.50;32.50
10245;DHT22;5167;52.164;10.530;2022-08-21T00:21:14;20.60;32.70
10245;DHT22;5167;52.164;10.530;2022-08-21T00:23:40;20.50;32.30
10245;DHT22;5167;52.164;10.530;2022-08-21T00:26:06;20.50;32.80
10245;DHT22;5167;52.164;10.530;2022-08-21T00:28:32;20.50;32.70
10245;DHT22;5167;52.164;10.530;2022-08-21T00:30:57;20.40;32.50
10245;DHT22;5167;52.164;10.530;2022-08-21T00:33:24;20.40;33.00
10245;DHT22;5167;52.164;10.530;2022-08-21T00:35:50;20.30;33.70
10245;DHT22;5167;52.164;10.530;2022-08-21T00:38:16;20.30;33.80
10245;DHT22;5167;52.164;10.530;2022-08-21T00:40:49;20.30;33.80
10245;DHT22;5167;52.164;10.530;2022-08-21T00:43:17;20.30;34.00
10245;DHT22;5167;52.164;10.530;2022-08-21T00:45:43;20.30;34.90
10245;DHT22;5167;52.164;10.530;2022-08-21T00:48:10;20.20;34.90
10245;DHT22;5167;52.164;10.530;2022-08-21T00:50:40;20.20;35.40
10245;DHT22;5167;52.164;10.530;2022-08-21T00:53:07;20.10;36.00
10245;DHT22;5167;52.164;10.530;2022-08-21T00:55:36;20.20;36.10
10245;DHT22;5167;52.164;10.530;2022-08-21T00:58:02;20.20;36.20
10245;DHT22;5167;52.164;10.530;2022-08-21T01:00:35;20.20;37.30
10245;DHT22;5167;52.164;10.530;2022-08-21T01:03:06;20.20;36.80
10245;DHT22;5167;52.164;10.530;2022-08-21T01:05:32;20.10;37.10
10245;DHT22;5167;52.164;10.530;2022-08-21T01:07:58;20.10;37.00
10245;DHT22;5167;52.164;10.530;2022-08-21T01:10:24;20.10;37.00
10245;DHT22;5167;52.164;10.530;2022-08-21T01:12:54;20.10;37.00
10245;DHT22;5167;52.164;10.530;2022-08-21T01:15:22;20.00;37.10
10245;DHT22;5167;52.164;10.530;2022-08-21T01:17:49;20.20;36.70
10245;DHT22;5167;52.164;10.530;2022-08-21T01:20:15;19.90;36.20
10245;DHT22;5167;52.164;10.530;2022-08-21T01:22:42;19.90;36.20
10245;DHT22;5167;52.164;10.530;2022-08-21T01:25:09;19.90;36.20
10245;DHT22;5167;52.164;10.530;2022-08-21T01:27:35;19.80;35.70
10245;DHT22;5167;52.164;10.530;2022-08-21T01:30:11;19.90;36.10
10245;DHT22;5167;52.164;10.530;2022-08-21T01:32:36;19.80;36.50
10245;DHT22;5167;52.164;10.530;2022-08-21T01:35:04;19.80;35.70
10245;DHT22;5167;52.164;10.530;2022-08-21T01:37:30;19.70;35.50
10245;DHT22;5167;52.164;10.530;2022-08-21T01:39:56;19.70;35.50
10245;DHT22;5167;52.164;10.530;2022-08-21T01:42:22;19.70;35.00
10245;DHT22;5167;52.164;10.530;2022-08-21T01:44:47;19.60;35.00
10245;DHT22;5167;52.164;10.530;2022-08-21T01:47:14;19.60;35.00
10245;DHT22;5167;52.164;10.530;2022-08-21T01:49:40;19.50;35.00
10245;DHT22;5167;52.164;10.530;2022-08-21T01:52:07;19.50;35.50
10245;DHT22;5167;52.164;10.530;2022-08-21T01:54:33;19.50;35.10
10245;DHT22;5167;52.164;10.530;2022-08-21T01:56:59;19.40;35.20
10245;DHT22;5167;52.164;10.530;2022-08-21T01:59:26;19.40;35.00
10245;DHT22;5167;52.164;10.530;2022-08-21T02:01:52;19.50;35.30
10245;DHT22;5167;52.164;10.530;2022-08-21T02:04:19;19.40;35.60
10245;DHT22;5167;52.164;10.530;2022-08-21T02:06:45;19.40;34.60
10245;DHT22;5167;52.164;10.530;2022-08-21T02:09:12;19.40;34.70
10245;DHT22;5167;52.164;10.530;2022-08-21T02:11:38;19.30;34.50
10245;DHT22;5167;52.164;10.530;2022-08-21T02:14:12;19.40;34.50
10245;DHT22;5167;52.164;10.530;2022-08-21T02:16:40;19.30;35.10
10245;DHT22;5167;52.164;10.530;2022-08-21T02:19:06;19.30;35.60
10245;DHT22;5167;52.164;10.530;2022-08-21T02:21:32;19.30;35.30
10245;DHT22;5167;52.164;10.530;2022-08-21T02:23:58;19.30;35.20
10245;DHT22;5167;52.164;10.530;2022-08-21T02:26:24;19.20;35.30
10245;DHT22;5167;52.164;10.530;2022-08-21T02:28:50;19.20;35.10
10245;DHT22;5167;52.164;10.530;2022-08-21T02:31:16;19.20;34.50
10245;DHT22;5167;52.164;10.530;2022-08-21T02:33:41;19.20;34.30
10245;DHT22;5167;52.164;10.530;2022-08-21T02:36:08;19.20;34.50
10245;DHT22;5167;52.164;10.530;2022-08-21T02:38:34;19.20;34.50
10245;DHT22;5167;52.164;10.530;2022-08-21T02:41:05;19.10;35.00
10245;DHT22;5167;52.164;10.530;2022-08-21T02:43:31;19.10;34.50
10245;DHT22;5167;52.164;10.530;2022-08-21T02:45:57;19.10;34.80
10245;DHT22;5167;52.164;10.530;2022-08-21T02:48:29;19.10;34.70
10245;DHT22;5167;52.164;10.530;2022-08-21T02:51:04;19.00;34.00
10245;DHT22;5167;52.164;10.530;2022-08-21T02:53:31;19.10;35.40
10245;DHT22;5167;52.164;10.530;2022-08-21T02:55:59;19.10;35.20
10245;DHT22;5167;52.164;10.530;2022-08-21T02:58:30;19.10;35.60
10245;DHT22;5167;52.164;10.530;2022-08-21T03:00:57;19.00;36.20
10245;DHT22;5167;52.164;10.530;2022-08-21T03:03:24;19.00;35.80
10245;DHT22;5167;52.164;10.530;2022-08-21T03:05:51;19.00;36.80
10245;DHT22;5167;52.164;10.530;2022-08-21T03:08:17;19.00;36.40
10245;DHT22;5167;52.164;10.530;2022-08-21T03:10:46;18.90;36.70
10245;DHT22;5167;52.164;10.530;2022-08-21T03:13:12;18.90;36.60
10245;DHT22;5167;52.164;10.530;2022-08-21T03:15:38;18.90;37.50
10245;DHT22;5167;52.164;10.530;2022-08-21T03:18:06;18.90;36.80
10245;DHT22;5167;52.164;10.530;2022-08-21T03:20:33;18.80;36.70
10245;DHT22;5167;52.164;10.530;2022-08-21T03:22:59;18.80;36.90
10245;DHT22;5167;52.164;10.530;2022-08-21T03:25:26;19.00;37.70
10245;DHT22;5167;52.164;10.530;2022-08-21T03:27:53;18.80;37.30
10245;DHT22;5167;52.164;10.530;2022-08-21T03:30:20;18.80;37.40
10245;DHT22;5167;52.164;10.530;2022-08-21T03:32:47;18.80;37.20
10245;DHT22;5167;52.164;10.530;2022-08-21T03:35:13;18.80;37.90
10245;DHT22;5167;52.164;10.530;2022-08-21T03:37:39;18.80;37.10
10245;DHT22;5167;52.164;10.530;2022-08-21T03:40:07;18.80;38.70
10245;DHT22;5167;52.164;10.530;2022-08-21T03:42:33;18.70;37.10
10245;DHT22;5167;52.164;10.530;2022-08-21T03:44:59;18.70;38.10
10245;DHT22;5167;52.164;10.530;2022-08-21T03:47:24;18.70;37.40
10245;DHT22;5167;52.164;10.530;2022-08-21T03:49:50;18.60;37.70
10245;DHT22;5167;52.164;10.530;2022-08-21T03:52:16;18.60;36.80
10245;DHT22;5167;52.164;10.530;2022-08-21T03:54:43;18.60;37.00
10245;DHT22;5167;52.164;10.530;2022-08-21T03:57:09;18.60;37.40
10245;DHT22;5167;52.164;10.530;2022-08-21T03:59:36;18.60;37.10
10245;DHT22;5167;52.164;10.530;2022-08-21T04:02:05;18.60;36.80
10245;DHT22;5167;52.164;10.530;2022-08-21T04:04:32;18.50;37.00
10245;DHT22;5167;52.164;10.530;2022-08-21T04:06:58;18.50;36.50
10245;DHT22;5167;52.164;10.530;2022-08-21T04:09:24;18.50;36.60
10245;DHT22;5167;52.164;10.530;2022-08-21T04:11:50;18.50;36.30
10245;DHT22;5167;52.164;10.530;2022-08-21T04:14:17;18.40;36.20
10245;DHT22;5167;52.164;10.530;2022-08-21T04:16:44;18.40;35.30
10245;DHT22;5167;52.164;10.530;2022-08-21T04:19:10;18.30;35.30
10245;DHT22;5167;52.164;10.530;2022-08-21T04:21:37;18.30;35.20
10245;DHT22;5167;52.164;10.530;2022-08-21T04:24:07;18.20;34.70
10245;DHT22;5167;52.164;10.530;2022-08-21T04:26:37;18.20;34.70
10245;DHT22;5167;52.164;10.530;2022-08-21T04:29:04;18.20;34.40
10245;DHT22;5167;52.164;10.530;2022-08-21T04:31:32;18.20;34.40
10245;DHT22;5167;52.164;10.530;2022-08-21T04:33:57;18.10;34.70
10245;DHT22;5167;52.164;10.530;2022-08-21T04:36:23;18.10;33.80
10245;DHT22;5167;52.164;10.530;2022-08-21T04:38:49;18.10;33.30
10245;DHT22;5167;52.164;10.530;2022-08-21T04:41:14;18.10;33.60
10245;DHT22;5167;52.164;10.530;2022-08-21T04:43:40;18.20;32.90
10245;DHT22;5167;52.164;10.530;2022-08-21T04:46:06;18.10;33.40
10245;DHT22;5167;52.164;10.530;2022-08-21T04:48:32;18.10;33.40
10245;DHT22;5167;52.164;10.530;2022-08-21T04:51:07;18.10;33.40
10245;DHT22;5167;52.164;10.530;2022-08-21T04:53:38;18.00;33.10
10245;DHT22;5167;52.164;10.530;2022-08-21T04:56:09;18.00;33.30
10245;DHT22;5167;52.164;10.530;2022-08-21T04:58:37;18.00;34.30
10245;DHT22;5167;52.164;10.530;2022-08-21T05:01:04;18.00;33.50
10245;DHT22;5167;52.164;10.530;2022-08-21T05:03:33;18.00;33.10
10245;DHT22;5167;52.164;10.530;2022-08-21T05:06:00;18.00;33.10
10245;DHT22;5167;52.164;10.530;2022-08-21T05:08:28;18.00;33.20
10245;DHT22;5167;52.164;10.530;2022-08-21T05:10:54;17.90;32.90
10245;DHT22;5167;52.164;10.530;2022-08-21T05:13:20;18.00;32.50
10245;DHT22;5167;52.164;10.530;2022-08-21T05:15:46;18.00;32.30
10245;DHT22;5167;52.164;10.530;2022-08-21T05:18:12;17.90;33.00
10245;DHT22;5167;52.164;10.530;2022-08-21T05:20:38;17.90;32.90
10245;DHT22;5167;52.164;10.530;2022-08-21T05:23:12;18.00;33.20
10245;DHT22;5167;52.164;10.530;2022-08-21T05:25:38;18.00;32.80
10245;DHT22;5167;52.164;10.530;2022-08-21T05:28:04;18.00;31.80
10245;DHT22;5167;52.164;10.530;2022-08-21T05:30:31;18.00;31.40
10245;DHT22;5167;52.164;10.530;2022-08-21T05:32:58;18.00;31.60
10245;DHT22;5167;52.164;10.530;2022-08-21T05:35:25;18.00;31.30
10245;DHT22;5167;52.164;10.530;2022-08-21T05:37:50;18.00;30.10
10245;DHT22;5167;52.164;10.530;2022-08-21T05:40:16;18.10;30.00
10245;DHT22;5167;52.164;10.530;2022-08-21T05:42:41;18.10;29.40
10245;DHT22;5167;52.164;10.530;2022-08-21T05:45:07;18.10;29.60
10245;DHT22;5167;52.164;10.530;2022-08-21T05:47:33;18.00;30.20
10245;DHT22;5167;52.164;10.530;2022-08-21T05:49:58;17.90;30.30
10245;DHT22;5167;52.164;10.530;2022-08-21T05:52:24;18.10;30.20
10245;DHT22;5167;52.164;10.530;2022-08-21T05:54:49;18.00;30.40
10245;DHT22;5167;52.164;10.530;2022-08-21T05:57:15;18.10;31.10
10245;DHT22;5167;52.164;10.530;2022-08-21T05:59:41;18.10;31.40
10245;DHT22;5167;52.164;10.530;2022-08-21T06:02:07;18.10;30.90
10245;DHT22;5167;52.164;10.530;2022-08-21T06:04:40;18.20;31.60
10245;DHT22;5167;52.164;10.530;2022-08-21T06:07:06;18.30;32.20
10245;DHT22;5167;52.164;10.530;2022-08-21T06:09:32;18.30;31.80
10245;DHT22;5167;52.164;10.530;2022-08-21T06:12:02;18.40;31.70
10245;DHT22;5167;52.164;10.530;2022-08-21T06:14:28;18.40;32.80
10245;DHT22;5167;52.164;10.530;2022-08-21T06:16:53;18.60;32.60
10245;DHT22;5167;52.164;10.530;2022-08-21T06:19:19;18.70;33.70
10245;DHT22;5167;52.164;10.530;2022-08-21T06:21:44;18.90;33.80
10245;DHT22;5167;52.164;10.530;2022-08-21T06:24:10;19.20;32.50
10245;DHT22;5167;52.164;10.530;2022-08-21T06:26:36;19.70;31.30
10245;DHT22;5167;52.164;10.530;2022-08-21T06:29:02;20.10;29.80
10245;DHT22;5167;52.164;10.530;2022-08-21T06:31:28;20.20;27.30
10245;DHT22;5167;52.164;10.530;2022-08-21T06:33:54;20.30;26.90
10245;DHT22;5167;52.164;10.530;2022-08-21T06:36:20;20.20;26.80
10245;DHT22;5167;52.164;10.530;2022-08-21T06:38:46;20.30;26.50
10245;DHT22;5167;52.164;10.530;2022-08-21T06:41:14;20.30;26.90
10245;DHT22;5167;52.164;10.530;2022-08-21T06:43:39;20.40;26.50
10245;DHT22;5167;52.164;10.530;2022-08-21T06:46:05;20.40;27.10
10245;DHT22;5167;52.164;10.530;2022-08-21T06:48:31;20.40;27.30
10245;DHT22;5167;52.164;10.530;2022-08-21T06:50:59;20.40;27.00
10245;DHT22;5167;52.164;10.530;2022-08-21T06:53:26;20.50;27.00
10245;DHT22;5167;52.164;10.530;2022-08-21T06:55:52;20.60;27.60
10245;DHT22;5167;52.164;10.530;2022-08-21T06:58:18;20.70;27.40
10245;DHT22;5167;52.164;10.530;2022-08-21T07:00:46;20.90;27.80
10245;DHT22;5167;52.164;10.530;2022-08-21T07:03:27;21.20;27.70
10245;DHT22;5167;52.164;10.530;2022-08-21T07:05:54;21.50;28.00
10245;DHT22;5167;52.164;10.530;2022-08-21T07:08:20;21.90;25.40
10245;DHT22;5167;52.164;10.530;2022-08-21T07:10:47;22.30;23.20
10245;DHT22;5167;52.164;10.530;2022-08-21T07:13:13;22.60;20.10
10245;DHT22;5167;52.164;10.530;2022-08-21T07:15:39;22.90;17.80
10245;DHT22;5167;52.164;10.530;2022-08-21T07:18:05;23.20;15.80
10245;DHT22;5167;52.164;10.530;2022-08-21T07:20:32;23.30;10.00
10245;DHT22;5167;52.164;10.530;2022-08-21T07:23:00;23.50;9.70
10245;DHT22;5167;52.164;10.530;2022-08-21T07:25:27;23.50;8.80
10245;DHT22;5167;52.164;10.530;2022-08-21T07:27:53;23.70;7.50
10245;DHT22;5167;52.164;10.530;2022-08-21T07:30:19;23.80;6.50
10245;DHT22;5167;52.164;10.530;2022-08-21T07:32:44;23.80;5.00
10245;DHT22;5167;52.164;10.530;2022-08-21T07:35:10;23.90;5.00
10245;DHT22;5167;52.164;10.530;2022-08-21T07:37:36;23.90;5.00
10245;DHT22;5167;52.164;10.530;2022-08-21T07:40:02;24.00;5.00
10245;DHT22;5167;52.164;10.530;2022-08-21T07:42:27;24.10;5.00
10245;DHT22;5167;52.164;10.530;2022-08-21T07:44:55;24.20;5.00
10245;DHT22;5167;52.164;10.530;2022-08-21T07:47:20;24.30;5.00
10245;DHT22;5167;52.164;10.530;2022-08-21T07:49:46;24.30;5.00
10245;DHT22;5167;52.164;10.530;2022-08-21T07:52:12;24.30;5.00
10245;DHT22;5167;52.164;10.530;2022-08-21T07:54:37;24.30;5.00
10245;DHT22;5167;52.164;10.530;2022-08-21T07:57:03;24.30;5.00
10245;DHT22;5167;52.164;10.530;2022-08-21T07:59:29;24.40;5.00
10245;DHT22;5167;52.164;10.530;2022-08-21T08:01:55;24.30;5.00
10245;DHT22;5167;52.164;10.530;2022-08-21T08:04:21;24.50;5.00
10245;DHT22;5167;52.164;10.530;2022-08-21T08:06:47;24.60;5.00
10245;DHT22;5167;52.164;10.530;2022-08-21T08:09:13;24.70;5.00
10245;DHT22;5167;52.164;10.530;2022-08-21T08:11:40;24.80;5.00
10245;DHT22;5167;52.164;10.530;2022-08-21T08:14:09;25.00;5.00
10245;DHT22;5167;52.164;10.530;2022-08-21T08:16:34;25.10;5.00
10245;DHT22;5167;52.164;10.530;2022-08-21T08:19:00;25.20;5.00
10245;DHT22;5167;52.164;10.530;2022-08-21T08:21:26;25.30;5.00
10245;DHT22;5167;52.164;10.530;2022-08-21T08:23:53;25.50;5.00
10245;DHT22;5167;52.164;10.530;2022-08-21T08:26:18;25.60;5.00
10245;DHT22;5167;52.164;10.530;2022-08-21T08:28:44;25.70;5.00
10245;DHT22;5167;52.164;10.530;2022-08-21T08:31:11;25.80;5.00
10245;DHT22;5167;52.164;10.530;2022-08-21T08:33:37;26.00;5.00
10245;DHT22;5167;52.164;10.530;2022-08-21T08:36:03;26.10;5.00
10245;DHT22;5167;52.164;10.530;2022-08-21T08:38:29;26.30;5.00
10245;DHT22;5167;52.164;10.530;2022-08-21T08:41:02;26.50;5.00
10245;DHT22;5167;52.164;10.530;2022-08-21T08:43:30;26.50;5.00
10245;DHT22;5167;52.164;10.530;2022-08-21T08:45:58;26.40;5.00
10245;DHT22;5167;52.164;10.530;2022-08-21T08:48:55;26.30;5.00
10245;DHT22;5167;52.164;10.530;2022-08-21T08:51:27;26.00;5.00
10245;DHT22;5167;52.164;10.530;2022-08-21T08:53:59;25.80;5.00
10245;DHT22;5167;52.164;10.530;2022-08-21T08:56:30;25.70;5.00
10245;DHT22;5167;52.164;10.530;2022-08-21T08:59:00;25.50;5.00
10245;DHT22;5167;52.164;10.530;2022-08-21T09:01:27;25.30;5.00
10245;DHT22;5167;52.164;10.530;2022-08-21T09:03:52;25.10;5.00
10245;DHT22;5167;52.164;10.530;2022-08-21T09:09:19;24.90;5.00
10245;DHT22;5167;52.164;10.530;2022-08-21T09:12:02;24.80;5.00
10245;DHT22;5167;52.164;10.530;2022-08-21T09:18:24;24.70;5.00
10245;DHT22;5167;52.164;10.530;2022-08-21T09:20:24;24.80;5.00
10245;DHT22;5167;52.164;10.530;2022-08-21T09:26:05;25.10;5.00
10245;DHT22;5167;52.164;10.530;2022-08-21T09:28:34;25.30;5.00
10245;DHT22;5167;52.164;10.530;2022-08-21T09:31:02;25.30;5.00
10245;DHT22;5167;52.164;10.530;2022-08-21T09:33:29;25.40;5.00
10245;DHT22;5167;52.164;10.530;2022-08-21T09:35:56;25.50;5.00
10245;DHT22;5167;52.164;10.530;2022-08-21T09:41:08;25.50;5.00
10245;DHT22;5167;52.164;10.530;2022-08-21T09:43:36;25.50;5.00
10245;DHT22;5167;52.164;10.530;2022-08-21T09:48:40;25.70;5.00
10245;DHT22;5167;52.164;10.530;2022-08-21T09:51:10;25.80;5.00
10245;DHT22;5167;52.164;10.530;2022-08-21T09:53:41;26.00;5.00
10245;DHT22;5167;52.164;10.530;2022-08-21T09:56:29;26.10;5.00
10245;DHT22;5167;52.164;10.530;2022-08-21T09:59:18;26.30;5.00
10245;DHT22;5167;52.164;10.530;2022-08-21T10:01:47;26.60;5.00
10245;DHT22;5167;52.164;10.530;2022-08-21T10:04:14;26.70;5.00
10245;DHT22;5167;52.164;10.530;2022-08-21T10:06:40;26.90;5.00
10245;DHT22;5167;52.164;10.530;2022-08-21T10:09:09;27.10;5.00
10245;DHT22;5167;52.164;10.530;2022-08-21T10:11:36;27.20;5.00
10245;DHT22;5167;52.164;10.530;2022-08-21T10:16:57;27.50;5.00
10245;DHT22;5167;52.164;10.530;2022-08-21T10:19:55;27.70;5.00
10245;DHT22;5167;52.164;10.530;2022-08-21T10:25:17;28.00;5.00
10245;DHT22;5167;52.164;10.530;2022-08-21T10:28:04;28.10;5.00
10245;DHT22;5167;52.164;10.530;2022-08-21T10:38:55;28.40;5.00
10245;DHT22;5167;52.164;10.530;2022-08-21T10:44:34;28.60;5.00
10245;DHT22;5167;52.164;10.530;2022-08-21T10:47:37;28.70;5.00
10245;DHT22;5167;52.164;10.530;2022-08-21T10:50:34;28.70;5.00
10245;DHT22;5167;52.164;10.530;2022-08-21T11:01:19;28.90;5.00
10245;DHT22;5167;52.164;10.530;2022-08-21T11:03:53;28.90;5.00
10245;DHT22;5167;52.164;10.530;2022-08-21T11:06:24;28.90;5.00
10245;DHT22;5167;52.164;10.530;2022-08-21T11:09:26;29.00;5.00
10245;DHT22;5167;52.164;10.530;2022-08-21T11:12:06;29.00;5.00
10245;DHT22;5167;52.164;10.530;2022-08-21T11:14:59;28.90;5.00
10245;DHT22;5167;52.164;10.530;2022-08-21T11:17:36;28.90;5.00
10245;DHT22;5167;52.164;10.530;2022-08-21T11:20:15;28.90;5.00
10245;DHT22;5167;52.164;10.530;2022-08-21T11:22:54;28.80;5.00
10245;DHT22;5167;52.164;10.530;2022-08-21T11:25:35;28.90;5.00
10245;DHT22;5167;52.164;10.530;2022-08-21T11:28:19;28.90;5.00
10245;DHT22;5167;52.164;10.530;2022-08-21T11:31:10;28.90;5.00
10245;DHT22;5167;52.164;10.530;2022-08-21T11:47:54;28.90;5.00
10245;DHT22;5167;52.164;10.530;2022-08-21T11:50:26;28.70;5.00
10245;DHT22;5167;52.164;10.530;2022-08-21T11:56:05;28.60;5.00
10245;DHT22;5167;52.164;10.530;2022-08-21T11:58:45;28.50;5.00
10245;DHT22;5167;52.164;10.530;2022-08-21T12:01:20;28.50;5.00
10245;DHT22;5167;52.164;10.530;2022-08-21T12:04:00;28.50;5.00
10245;DHT22;5167;52.164;10.530;2022-08-21T12:06:33;28.50;5.00
10245;DHT22;5167;52.164;10.530;2022-08-21T12:12:02;28.50;5.00
10245;DHT22;5167;52.164;10.530;2022-08-21T12:14:42;28.50;5.00
10245;DHT22;5167;52.164;10.530;2022-08-21T12:17:20;28.50;5.00
10245;DHT22;5167;52.164;10.530;2022-08-21T12:19:57;28.50;5.00
10245;DHT22;5167;52.164;10.530;2022-08-21T12:22:37;28.50;5.00
10245;DHT22;5167;52.164;10.530;2022-08-21T12:25:07;28.40;5.00
10245;DHT22;5167;52.164;10.530;2022-08-21T12:27:53;28.50;5.00
10245;DHT22;5167;52.164;10.530;2022-08-21T12:33:05;28.60;5.00
10245;DHT22;5167;52.164;10.530;2022-08-21T12:35:40;28.60;5.00
10245;DHT22;5167;52.164;10.530;2022-08-21T12:38:26;28.70;5.00
10245;DHT22;5167;52.164;10.530;2022-08-21T12:43:35;28.60;5.00
10245;DHT22;5167;52.164;10.530;2022-08-21T12:46:03;28.70;5.00
10245;DHT22;5167;52.164;10.530;2022-08-21T12:48:43;28.70;5.00
10245;DHT22;5167;52.164;10.530;2022-08-21T12:51:14;28.70;5.00
10245;DHT22;5167;52.164;10.530;2022-08-21T12:53:53;28.70;5.00
10245;DHT22;5167;52.164;10.530;2022-08-21T12:56:26;28.70;5.00
10245;DHT22;5167;52.164;10.530;2022-08-21T12:59:02;28.60;5.00
10245;DHT22;5167;52.164;10.530;2022-08-21T13:01:31;28.60;5.00
10245;DHT22;5167;52.164;10.530;2022-08-21T13:04:03;28.60;5.00
10245;DHT22;5167;52.164;10.530;2022-08-21T13:06:41;28.60;5.00
10245;DHT22;5167;52.164;10.530;2022-08-21T13:09:12;28.50;5.00
10245;DHT22;5167;52.164;10.530;2022-08-21T13:11:40;28.50;5.00
10245;DHT22;5167;52.164;10.530;2022-08-21T13:14:35;28.50;5.00
10245;DHT22;5167;52.164;10.530;2022-08-21T13:17:00;28.50;5.00
10245;DHT22;5167;52.164;10.530;2022-08-21T13:19:27;28.50;5.00
10245;DHT22;5167;52.164;10.530;2022-08-21T13:21:55;28.50;5.00
10245;DHT22;5167;52.164;10.530;2022-08-21T13:24:31;28.50;5.00
10245;DHT22;5167;52.164;10.530;2022-08-21T13:26:57;28.40;5.00
10245;DHT22;5167;52.164;10.530;2022-08-21T13:29:29;28.40;5.00
10245;DHT22;5167;52.164;10.530;2022-08-21T13:32:01;28.40;5.00
10245;DHT22;5167;52.164;10.530;2022-08-21T13:34:31;28.60;5.00
10245;DHT22;5167;52.164;10.530;2022-08-21T13:37:02;28.60;5.00
10245;DHT22;5167;52.164;10.530;2022-08-21T13:39:29;28.60;5.00
10245;DHT22;5167;52.164;10.530;2022-08-21T13:41:57;28.60;5.00
10245;DHT22;5167;52.164;10.530;2022-08-21T13:44:41;28.60;5.00
10245;DHT22;5167;52.164;10.530;2022-08-21T13:47:10;28.50;5.00
10245;DHT22;5167;52.164;10.530;2022-08-21T13:49:39;28.30;5.00
10245;DHT22;5167;52.164;10.530;2022-08-21T13:52:31;28.30;5.00
10245;DHT22;5167;52.164;10.530;2022-08-21T13:55:09;28.30;5.00
10245;DHT22;5167;52.164;10.530;2022-08-21T13:57:35;28.30;5.00
10245;DHT22;5167;52.164;10.530;2022-08-21T14:00:25;28.30;5.00
10245;DHT22;5167;52.164;10.530;2022-08-21T14:02:53;28.30;5.00
10245;DHT22;5167;52.164;10.530;2022-08-21T14:05:30;28.40;5.00
10245;DHT22;5167;52.164;10.530;2022-08-21T14:08:12;28.40;5.00
10245;DHT22;5167;52.164;10.530;2022-08-21T14:10:46;28.40;5.00
10245;DHT22;5167;52.164;10.530;2022-08-21T14:13:40;28.50;5.00
10245;DHT22;5167;52.164;10.530;2022-08-21T14:16:27;28.50;5.00
10245;DHT22;5167;52.164;10.530;2022-08-21T14:19:26;28.50;5.00
10245;DHT22;5167;52.164;10.530;2022-08-21T14:21:52;28.50;5.00
10245;DHT22;5167;52.164;10.530;2022-08-21T14:27:11;28.40;5.00
10245;DHT22;5167;52.164;10.530;2022-08-21T14:29:39;28.40;5.00
10245;DHT22;5167;52.164;10.530;2022-08-21T14:32:19;28.40;5.00
10245;DHT22;5167;52.164;10.530;2022-08-21T14:34:45;28.40;5.00
10245;DHT22;5167;52.164;10.530;2022-08-21T14:37:11;28.40;5.00
10245;DHT22;5167;52.164;10.530;2022-08-21T14:39:36;28.30;5.00
10245;DHT22;5167;52.164;10.530;2022-08-21T14:42:03;28.30;5.00
10245;DHT22;5167;52.164;10.530;2022-08-21T14:44:28;28.30;5.00
10245;DHT22;5167;52.164;10.530;2022-08-21T14:46:55;28.30;5.00
10245;DHT22;5167;52.164;10.530;2022-08-21T14:49:21;28.50;5.00
10245;DHT22;5167;52.164;10.530;2022-08-21T14:51:46;28.30;5.00
10245;DHT22;5167;52.164;10.530;2022-08-21T14:54:12;28.30;5.00
10245;DHT22;5167;52.164;10.530;2022-08-21T14:56:38;28.30;5.00
10245;DHT22;5167;52.164;10.530;2022-08-21T14:59:06;28.30;5.00
10245;DHT22;5167;52.164;10.530;2022-08-21T15:01:36;28.30;5.00
10245;DHT22;5167;52.164;10.530;2022-08-21T15:04:02;28.30;5.00
10245;DHT22;5167;52.164;10.530;2022-08-21T15:06:28;28.20;5.00
10245;DHT22;5167;52.164;10.530;2022-08-21T15:08:54;28.20;5.00
10245;DHT22;5167;52.164;10.530;2022-08-21T15:11:24;28.20;5.00
10245;DHT22;5167;52.164;10.530;2022-08-21T15:13:54;28.10;5.00
10245;DHT22;5167;52.164;10.530;2022-08-21T15:16:21;28.20;5.00
10245;DHT22;5167;52.164;10.530;2022-08-21T15:18:46;28.10;5.00
10245;DHT22;5167;52.164;10.530;2022-08-21T15:21:12;28.00;5.00
10245;DHT22;5167;52.164;10.530;2022-08-21T15:23:38;28.00;5.00
10245;DHT22;5167;52.164;10.530;2022-08-21T15:26:03;28.00;5.00
10245;DHT22;5167;52.164;10.530;2022-08-21T15:28:29;28.00;5.00
10245;DHT22;5167;52.164;10.530;2022-08-21T15:30:55;28.00;5.00
10245;DHT22;5167;52.164;10.530;2022-08-21T15:33:20;27.90;5.00
10245;DHT22;5167;52.164;10.530;2022-08-21T15:35:47;27.90;5.00
10245;DHT22;5167;52.164;10.530;2022-08-21T15:38:13;27.90;5.00
10245;DHT22;5167;52.164;10.530;2022-08-21T15:40:40;27.90;5.00
10245;DHT22;5167;52.164;10.530;2022-08-21T15:43:10;28.00;5.00
10245;DHT22;5167;52.164;10.530;2022-08-21T15:45:36;27.90;5.00
10245;DHT22;5167;52.164;10.530;2022-08-21T15:48:04;27.90;5.00
10245;DHT22;5167;52.164;10.530;2022-08-21T15:50:29;27.90;5.00
10245;DHT22;5167;52.164;10.530;2022-08-21T15:52:57;27.90;5.00
10245;DHT22;5167;52.164;10.530;2022-08-21T15:55:22;27.80;5.00
10245;DHT22;5167;52.164;10.530;2022-08-21T15:57:49;27.80;5.00
10245;DHT22;5167;52.164;10.530;2022-08-21T16:00:22;27.80;5.00
10245;DHT22;5167;52.164;10.530;2022-08-21T16:02:53;27.80;5.00
10245;DHT22;5167;52.164;10.530;2022-08-21T16:05:21;27.80;5.00
10245;DHT22;5167;52.164;10.530;2022-08-21T16:07:48;27.70;5.00
10245;DHT22;5167;52.164;10.530;2022-08-21T16:10:16;27.80;5.00
10245;DHT22;5167;52.164;10.530;2022-08-21T16:12:45;27.80;5.00
10245;DHT22;5167;52.164;10.530;2022-08-21T16:15:12;27.70;5.00
10245;DHT22;5167;52.164;10.530;2022-08-21T16:17:40;27.70;5.00
10245;DHT22;5167;52.164;10.530;2022-08-21T16:20:11;27.70;5.00
10245;DHT22;5167;52.164;10.530;2022-08-21T16:22:37;27.60;5.00
10245;DHT22;5167;52.164;10.530;2022-08-21T16:25:05;27.70;5.00
10245;DHT22;5167;52.164;10.530;2022-08-21T16:27:32;27.70;5.00
10245;DHT22;5167;52.164;10.530;2022-08-21T16:29:59;27.70;5.00
10245;DHT22;5167;52.164;10.530;2022-08-21T16:32:24;27.70;5.00
10245;DHT22;5167;52.164;10.530;2022-08-21T16:34:50;27.70;5.00
10245;DHT22;5167;52.164;10.530;2022-08-21T16:37:16;27.70;5.00
10245;DHT22;5167;52.164;10.530;2022-08-21T16:39:42;27.60;5.00
10245;DHT22;5167;52.164;10.530;2022-08-21T16:42:12;27.70;5.00
10245;DHT22;5167;52.164;10.530;2022-08-21T16:44:38;27.60;5.00
10245;DHT22;5167;52.164;10.530;2022-08-21T16:47:04;27.60;5.00
10245;DHT22;5167;52.164;10.530;2022-08-21T16:49:29;27.60;5.00
10245;DHT22;5167;52.164;10.530;2022-08-21T16:51:56;27.60;5.00
10245;DHT22;5167;52.164;10.530;2022-08-21T16:54:22;27.60;5.00
10245;DHT22;5167;52.164;10.530;2022-08-21T16:56:48;27.50;5.00
10245;DHT22;5167;52.164;10.530;2022-08-21T16:59:14;27.50;5.00
10245;DHT22;5167;52.164;10.530;2022-08-21T17:01:40;27.50;5.00